Time,TemperatureF,DewpointF,PressureIn,WindDirection,WindDirectionDegrees,WindSpeedMPH,WindSpeedGustMPH,Humidity,HourlyPrecipIn,Conditions,Clouds,dailyrainin,SoftwareType,DateUTC
2013-05-13 00:01:00,47.5,28.8,28.02,WSW,248,0.0,0.0,48,0.00,,---,0.00,VWS V14.01,2013-05-13 04:01:00,
2013-05-13 00:03:00,47.3,28.6,28.02,WSW,248,0.0,1.3,48,0.00,,---,0.00,VWS V14.01,2013-05-13 04:03:00,
2013-05-13 00:08:00,47.3,28.6,28.02,WSW,248,0.0,1.1,48,0.00,,---,0.00,VWS V14.01,2013-05-13 04:08:00,
2013-05-13 00:13:00,47.3,28.6,28.02,WSW,248,0.0,0.0,48,0.00,,---,0.00,VWS V14.01,2013-05-13 04:13:00,
2013-05-13 00:18:00,47.3,28.6,28.02,SSW,202,0.0,0.9,48,0.00,,---,0.00,VWS V14.01,2013-05-13 04:18:00,
2013-05-13 00:23:00,47.1,28.5,28.02,SSW,202,0.0,0.0,48,0.00,,---,0.00,VWS V14.01,2013-05-13 04:23:00,
2013-05-13 00:28:00,47.1,28.5,28.02,WSW,248,0.9,0.9,48,0.00,,---,0.00,VWS V14.01,2013-05-13 04:28:00,
2013-05-13 00:33:00,47.1,28.5,28.02,West,270,0.0,0.0,48,0.00,,---,0.00,VWS V14.01,2013-05-13 04:33:00,
2013-05-13 00:38:00,46.9,28.3,28.02,North,0,0.0,0.0,48,0.00,,---,0.00,VWS V14.01,2013-05-13 04:38:00,
2013-05-13 00:43:00,46.8,28.1,28.02,West,270,0.0,0.0,48,0.00,,---,0.00,VWS V14.01,2013-05-13 04:43:00,
2013-05-13 00:48:00,46.8,28.1,28.02,West,270,1.1,2.5,48,0.00,,---,0.00,VWS V14.01,2013-05-13 04:48:00,
2013-05-13 00:53:00,46.6,28.0,28.02,North,0,0.0,0.0,48,0.00,,---,0.00,VWS V14.01,2013-05-13 04:53:00,
2013-05-13 00:58:00,46.2,27.6,28.02,ENE,68,0.0,0.0,48,0.00,,---,0.00,VWS V14.01,2013-05-13 04:58:00,
2013-05-13 01:03:00,46.0,28.0,28.02,East,90,0.0,0.0,49,0.00,,---,0.00,VWS V14.01,2013-05-13 05:03:00,
2013-05-13 01:08:00,46.0,28.0,28.02,East,90,0.9,0.9,49,0.00,,---,0.00,VWS V14.01,2013-05-13 05:08:00,
2013-05-13 01:13:00,46.0,28.0,28.02,WSW,248,0.0,0.0,49,0.00,,---,0.00,VWS V14.01,2013-05-13 05:13:00,
2013-05-13 01:18:00,46.0,28.0,28.02,SE,135,3.4,3.4,49,0.00,,---,0.00,VWS V14.01,2013-05-13 05:18:00,
2013-05-13 01:23:00,46.2,28.1,28.02,NNW,338,0.0,1.1,49,0.00,,---,0.00,VWS V14.01,2013-05-13 05:23:00,
2013-05-13 01:28:00,46.2,28.1,28.02,East,90,0.0,0.0,49,0.00,,---,0.00,VWS V14.01,2013-05-13 05:28:00,
2013-05-13 01:34:00,46.2,28.1,28.02,WNW,292,0.0,1.1,49,0.00,,---,0.00,VWS V14.01,2013-05-13 05:34:00,
2013-05-13 01:39:00,46.0,28.0,28.02,East,90,0.0,0.0,49,0.00,,---,0.00,VWS V14.01,2013-05-13 05:39:00,
2013-05-13 01:44:00,46.0,28.0,28.02,NNW,338,0.0,0.0,49,0.00,,---,0.00,VWS V14.01,2013-05-13 05:44:00,
2013-05-13 01:49:00,45.9,27.8,28.02,SSE,158,0.0,0.0,49,0.00,,---,0.00,VWS V14.01,2013-05-13 05:49:00,
2013-05-13 01:54:00,45.9,27.8,28.02,ESE,112,0.0,1.3,49,0.00,,---,0.00,VWS V14.01,2013-05-13 05:54:00,
2013-05-13 01:59:00,45.9,27.8,28.02,North,0,0.0,0.0,49,0.00,,---,0.00,VWS V14.01,2013-05-13 05:59:00,
2013-05-13 02:04:00,45.7,27.6,28.02,WNW,292,0.0,0.0,49,0.00,,---,0.00,VWS V14.01,2013-05-13 06:04:00,
2013-05-13 02:09:00,45.5,27.5,28.02,NW,315,0.0,0.0,49,0.00,,---,0.00,VWS V14.01,2013-05-13 06:09:00,
2013-05-13 02:14:00,45.1,27.1,28.02,NE,45,0.0,0.0,49,0.00,,---,0.00,VWS V14.01,2013-05-13 06:14:00,
2013-05-13 02:19:00,45.1,27.1,28.02,NE,45,0.0,0.0,49,0.00,,---,0.00,VWS V14.01,2013-05-13 06:19:00,
2013-05-13 02:24:00,44.8,27.3,28.02,SE,135,0.0,0.0,50,0.00,,---,0.00,VWS V14.01,2013-05-13 06:24:00,
2013-05-13 02:29:00,44.6,27.1,28.02,WSW,248,0.0,1.3,50,0.00,,---,0.00,VWS V14.01,2013-05-13 06:29:00,
2013-05-13 02:35:00,44.2,26.8,28.02,WNW,292,0.0,0.0,50,0.00,,---,0.00,VWS V14.01,2013-05-13 06:35:00,
2013-05-13 02:40:00,44.1,27.1,28.02,WNW,292,0.0,0.0,51,0.00,,---,0.00,VWS V14.01,2013-05-13 06:40:00,
2013-05-13 02:45:00,43.9,26.9,28.02,WNW,292,0.0,0.0,51,0.00,,---,0.00,VWS V14.01,2013-05-13 06:45:00,
2013-05-13 02:50:00,43.7,26.8,28.02,West,270,0.0,0.0,51,0.00,,---,0.00,VWS V14.01,2013-05-13 06:50:00,
2013-05-13 02:55:00,43.7,26.8,28.02,NW,315,0.0,0.0,51,0.00,,---,0.00,VWS V14.01,2013-05-13 06:55:00,
2013-05-13 03:00:00,43.3,26.9,28.02,WNW,292,0.0,0.0,52,0.00,,---,0.00,VWS V14.01,2013-05-13 07:00:00,
2013-05-13 03:05:00,43.3,26.9,28.02,NW,315,0.0,0.0,52,0.00,,---,0.00,VWS V14.01,2013-05-13 07:05:00,
2013-05-13 03:10:00,43.0,26.6,28.02,NW,315,0.0,0.0,52,0.00,,---,0.00,VWS V14.01,2013-05-13 07:10:00,
2013-05-13 03:15:00,42.8,26.9,28.02,NW,315,0.0,0.0,53,0.00,,---,0.00,VWS V14.01,2013-05-13 07:15:00,
2013-05-13 03:20:00,42.4,26.5,28.02,NW,315,0.0,0.0,53,0.00,,---,0.00,VWS V14.01,2013-05-13 07:20:00,
2013-05-13 03:25:00,42.3,26.8,27.99,WNW,292,0.0,0.0,54,0.00,,---,0.00,VWS V14.01,2013-05-13 07:25:00,
2013-05-13 03:30:00,42.1,26.6,27.99,WNW,292,0.0,0.0,54,0.00,,---,0.00,VWS V14.01,2013-05-13 07:30:00,
2013-05-13 03:35:00,41.9,26.9,27.99,WNW,292,0.0,0.0,55,0.00,,---,0.00,VWS V14.01,2013-05-13 07:35:00,
2013-05-13 03:41:00,41.9,26.9,28.02,NW,315,0.0,0.0,55,0.00,,---,0.00,VWS V14.01,2013-05-13 07:41:00,
2013-05-13 03:46:00,41.7,26.8,28.02,NW,315,0.0,0.0,55,0.00,,---,0.00,VWS V14.01,2013-05-13 07:46:00,
2013-05-13 03:51:00,41.7,27.2,28.02,WNW,292,0.0,0.0,56,0.00,,---,0.00,VWS V14.01,2013-05-13 07:51:00,
2013-05-13 03:56:00,41.7,27.2,28.02,NW,315,0.0,0.0,56,0.00,,---,0.00,VWS V14.01,2013-05-13 07:56:00,
2013-05-13 04:01:00,41.5,27.0,28.02,NW,315,0.0,0.0,56,0.00,,---,0.00,VWS V14.01,2013-05-13 08:01:00,
2013-05-13 04:06:00,41.5,27.0,28.02,NW,315,0.0,0.0,56,0.00,,---,0.00,VWS V14.01,2013-05-13 08:06:00,
2013-05-13 04:11:00,41.5,27.0,28.02,WSW,248,0.0,0.0,56,0.00,,---,0.00,VWS V14.01,2013-05-13 08:11:00,
2013-05-13 04:16:00,41.7,27.2,28.02,WSW,248,0.0,0.0,56,0.00,,---,0.00,VWS V14.01,2013-05-13 08:16:00,
2013-05-13 04:21:00,41.7,27.2,28.02,NW,315,0.0,0.0,56,0.00,,---,0.00,VWS V14.01,2013-05-13 08:21:00,
2013-05-13 04:26:00,41.9,27.4,28.02,NW,315,0.0,0.0,56,0.00,,---,0.00,VWS V14.01,2013-05-13 08:26:00,
2013-05-13 04:31:00,41.9,27.4,28.02,NW,315,0.0,0.0,56,0.00,,---,0.00,VWS V14.01,2013-05-13 08:31:00,
2013-05-13 04:36:00,41.9,27.4,28.02,NW,315,0.0,0.0,56,0.00,,---,0.00,VWS V14.01,2013-05-13 08:36:00,
2013-05-13 04:41:00,41.7,27.2,28.02,ENE,68,0.0,0.0,56,0.00,,---,0.00,VWS V14.01,2013-05-13 08:41:00,
2013-05-13 04:46:00,41.7,27.2,28.02,WNW,292,0.0,0.0,56,0.00,,---,0.00,VWS V14.01,2013-05-13 08:46:00,
2013-05-13 04:51:00,41.7,27.2,28.02,WNW,292,0.0,0.0,56,0.00,,---,0.00,VWS V14.01,2013-05-13 08:51:00,
2013-05-13 04:57:00,41.7,27.2,28.02,SSW,202,1.1,1.1,56,0.00,,---,0.00,VWS V14.01,2013-05-13 08:57:00,
2013-05-13 05:02:00,41.5,27.0,28.02,WNW,292,0.0,0.0,56,0.00,,---,0.00,VWS V14.01,2013-05-13 09:02:00,
2013-05-13 05:07:00,41.5,27.0,28.02,WNW,292,0.0,0.0,56,0.00,,---,0.00,VWS V14.01,2013-05-13 09:07:00,
2013-05-13 05:12:00,41.5,27.0,28.02,SW,225,0.0,0.0,56,0.00,,---,0.00,VWS V14.01,2013-05-13 09:12:00,
2013-05-13 05:17:00,41.5,27.0,28.02,WSW,248,0.0,0.0,56,0.00,,---,0.00,VWS V14.01,2013-05-13 09:17:00,
2013-05-13 05:22:00,41.4,26.4,28.02,WSW,248,0.0,0.0,55,0.00,,---,0.00,VWS V14.01,2013-05-13 09:22:00,
2013-05-13 05:27:00,41.2,26.2,28.02,WNW,292,0.0,0.0,55,0.00,,---,0.00,VWS V14.01,2013-05-13 09:27:00,
2013-05-13 05:32:00,41.2,26.2,28.02,NW,315,0.0,0.0,55,0.00,,---,0.00,VWS V14.01,2013-05-13 09:32:00,
2013-05-13 05:37:00,41.2,26.2,28.02,NW,315,0.0,0.0,55,0.00,,---,0.00,VWS V14.01,2013-05-13 09:37:00,
2013-05-13 05:42:00,41.0,26.1,28.02,NW,315,0.0,0.0,55,0.00,,---,0.00,VWS V14.01,2013-05-13 09:42:00,
2013-05-13 05:47:00,41.0,26.1,28.02,NW,315,0.0,0.0,55,0.00,,---,0.00,VWS V14.01,2013-05-13 09:47:00,
2013-05-13 05:52:00,40.6,25.8,28.02,NW,315,0.0,0.0,55,0.00,,---,0.00,VWS V14.01,2013-05-13 09:52:00,
2013-05-13 05:57:00,40.6,25.8,28.02,NW,315,0.0,0.0,55,0.00,,---,0.00,VWS V14.01,2013-05-13 09:57:00,
2013-05-13 06:02:00,40.6,25.8,28.02,WSW,248,0.0,0.0,55,0.00,,---,0.00,VWS V14.01,2013-05-13 10:02:00,
2013-05-13 06:08:00,40.6,25.8,28.02,West,270,0.0,0.0,55,0.00,,---,0.00,VWS V14.01,2013-05-13 10:08:00,
2013-05-13 06:13:00,40.5,25.6,28.02,WNW,292,0.0,0.0,55,0.00,,---,0.00,VWS V14.01,2013-05-13 10:13:00,
2013-05-13 06:18:00,40.5,25.6,28.02,WNW,292,0.0,0.0,55,0.00,,---,0.00,VWS V14.01,2013-05-13 10:18:00,
2013-05-13 06:23:00,40.5,25.6,28.02,WNW,292,0.0,0.0,55,0.00,,---,0.00,VWS V14.01,2013-05-13 10:23:00,
2013-05-13 06:28:00,40.6,25.8,28.02,WNW,292,0.0,0.0,55,0.00,,---,0.00,VWS V14.01,2013-05-13 10:28:00,
2013-05-13 06:33:00,40.6,25.8,28.02,WNW,292,0.0,0.0,55,0.00,,---,0.00,VWS V14.01,2013-05-13 10:33:00,
2013-05-13 06:38:00,40.6,25.8,28.05,WNW,292,0.0,0.0,55,0.00,,---,0.00,VWS V14.01,2013-05-13 10:38:00,
2013-05-13 06:43:00,40.6,25.8,28.05,WNW,292,0.0,0.0,55,0.00,,---,0.00,VWS V14.01,2013-05-13 10:43:00,
2013-05-13 06:48:00,40.8,25.9,28.05,WNW,292,0.0,0.0,55,0.00,,---,0.00,VWS V14.01,2013-05-13 10:48:00,
2013-05-13 06:53:00,40.8,25.9,28.05,NW,315,0.0,0.0,55,0.00,,---,0.00,VWS V14.01,2013-05-13 10:53:00,
2013-05-13 06:58:00,41.0,25.6,28.05,NW,315,0.0,0.0,54,0.00,,---,0.00,VWS V14.01,2013-05-13 10:58:00,
2013-05-13 07:03:00,41.0,26.1,28.05,NW,315,0.0,0.0,55,0.00,,---,0.00,VWS V14.01,2013-05-13 11:03:00,
2013-05-13 07:09:00,41.2,26.2,28.05,WNW,292,0.0,0.0,55,0.00,,---,0.00,VWS V14.01,2013-05-13 11:09:00,
2013-05-13 07:14:00,41.4,26.0,28.05,WNW,292,0.0,0.0,54,0.00,,---,0.00,VWS V14.01,2013-05-13 11:14:00,
2013-05-13 07:19:00,41.5,26.1,28.05,WNW,292,0.0,0.0,54,0.00,,---,0.00,VWS V14.01,2013-05-13 11:19:00,
2013-05-13 07:24:00,41.7,26.3,28.08,WNW,292,0.0,0.0,54,0.00,,---,0.00,VWS V14.01,2013-05-13 11:24:00,
2013-05-13 07:29:00,42.1,26.6,28.08,WNW,292,0.0,0.0,54,0.00,,---,0.00,VWS V14.01,2013-05-13 11:29:00,
2013-05-13 07:34:00,42.4,27.4,28.08,WNW,292,0.0,0.0,55,0.00,,---,0.00,VWS V14.01,2013-05-13 11:34:00,
2013-05-13 07:39:00,42.8,27.3,28.08,WNW,292,0.0,0.0,54,0.00,,---,0.00,VWS V14.01,2013-05-13 11:39:00,
2013-05-13 07:44:00,43.2,27.7,28.08,WNW,292,0.0,0.0,54,0.00,,---,0.00,VWS V14.01,2013-05-13 11:44:00,
2013-05-13 07:49:00,43.5,28.0,28.08,WNW,292,0.0,0.0,54,0.00,,---,0.00,VWS V14.01,2013-05-13 11:49:00,
2013-05-13 07:54:00,43.9,28.3,28.08,WNW,292,0.0,0.0,54,0.00,,---,0.00,VWS V14.01,2013-05-13 11:54:00,
2013-05-13 07:59:00,44.4,28.8,28.08,WNW,292,0.0,0.0,54,0.00,,---,0.00,VWS V14.01,2013-05-13 11:59:00,
2013-05-13 08:04:00,44.8,28.7,28.08,WNW,292,0.0,0.0,53,0.00,,---,0.00,VWS V14.01,2013-05-13 12:04:00,
2013-05-13 08:09:00,45.3,29.2,28.08,WNW,292,0.0,0.0,53,0.00,,---,0.00,VWS V14.01,2013-05-13 12:09:00,
2013-05-13 08:15:00,45.9,29.7,28.08,WNW,292,0.0,0.0,53,0.00,,---,0.00,VWS V14.01,2013-05-13 12:15:00,
2013-05-13 08:20:00,46.4,30.2,28.08,ENE,68,0.0,1.1,53,0.00,,---,0.00,VWS V14.01,2013-05-13 12:20:00,
2013-05-13 08:25:00,47.1,30.9,28.08,ENE,68,0.0,0.0,53,0.00,,---,0.00,VWS V14.01,2013-05-13 12:25:00,
2013-05-13 08:30:00,47.3,31.0,28.08,NE,45,0.0,0.0,53,0.00,,---,0.00,VWS V14.01,2013-05-13 12:30:00,
2013-05-13 08:35:00,48.0,32.2,28.08,East,90,0.0,0.0,54,0.00,,---,0.00,VWS V14.01,2013-05-13 12:35:00,
2013-05-13 08:40:00,48.7,32.4,28.08,West,270,0.0,0.0,53,0.00,,---,0.00,VWS V14.01,2013-05-13 12:40:00,
2013-05-13 08:45:00,49.1,32.2,28.08,West,270,0.0,0.0,52,0.00,,---,0.00,VWS V14.01,2013-05-13 12:45:00,
2013-05-13 08:50:00,49.5,32.6,28.08,South,180,2.0,2.0,52,0.00,,---,0.00,VWS V14.01,2013-05-13 12:50:00,
2013-05-13 08:55:00,50.0,32.6,28.08,ENE,68,0.0,0.0,51,0.00,,---,0.00,VWS V14.01,2013-05-13 12:55:00,
2013-05-13 09:00:00,50.5,32.1,28.08,NNE,22,0.0,0.0,49,0.00,,---,0.00,VWS V14.01,2013-05-13 13:00:00,
2013-05-13 09:05:00,50.7,31.8,28.08,SE,135,0.0,0.0,48,0.00,,---,0.00,VWS V14.01,2013-05-13 13:05:00,
2013-05-13 09:10:00,51.3,32.3,28.11,East,90,0.0,0.0,48,0.00,,---,0.00,VWS V14.01,2013-05-13 13:10:00,
2013-05-13 09:15:00,52.9,33.7,28.11,WSW,248,0.9,2.0,48,0.00,,---,0.00,VWS V14.01,2013-05-13 13:15:00,
2013-05-13 09:20:00,54.1,34.4,28.11,WSW,248,0.0,0.0,47,0.00,,---,0.00,VWS V14.01,2013-05-13 13:20:00,
2013-05-13 09:26:00,54.9,34.5,28.11,WNW,292,0.0,1.3,46,0.00,,---,0.00,VWS V14.01,2013-05-13 13:26:00,
2013-05-13 09:31:00,55.9,34.9,28.11,WNW,292,0.0,0.0,45,0.00,,---,0.00,VWS V14.01,2013-05-13 13:31:00,
2013-05-13 09:36:00,56.8,35.7,28.11,SSW,202,0.0,0.0,45,0.00,,---,0.00,VWS V14.01,2013-05-13 13:36:00,
2013-05-13 09:41:00,57.0,35.9,28.11,SSE,158,0.0,2.7,45,0.00,,---,0.00,VWS V14.01,2013-05-13 13:41:00,
2013-05-13 09:46:00,57.9,35.6,28.11,WSW,248,0.0,0.9,43,0.00,,---,0.00,VWS V14.01,2013-05-13 13:46:00,
2013-05-13 09:51:00,58.5,35.5,28.11,WNW,292,2.5,2.5,42,0.00,,---,0.00,VWS V14.01,2013-05-13 13:51:00,
2013-05-13 09:56:00,58.8,34.6,28.11,East,90,1.3,1.3,40,0.00,,---,0.00,VWS V14.01,2013-05-13 13:56:00,
2013-05-13 10:01:00,59.0,34.1,28.11,SSW,202,0.0,2.9,39,0.00,,---,0.00,VWS V14.01,2013-05-13 14:01:00,
2013-05-13 10:06:00,59.2,33.0,28.11,South,180,1.1,4.3,37,0.00,,---,0.00,VWS V14.01,2013-05-13 14:06:00,
2013-05-13 10:11:00,59.9,34.2,28.11,WSW,248,0.9,0.9,38,0.00,,---,0.00,VWS V14.01,2013-05-13 14:11:00,
2013-05-13 10:16:00,60.4,34.1,28.11,South,180,0.0,0.0,37,0.00,,---,0.00,VWS V14.01,2013-05-13 14:16:00,
2013-05-13 10:21:00,60.6,34.2,28.11,SW,225,0.9,0.9,37,0.00,,---,0.00,VWS V14.01,2013-05-13 14:21:00,
2013-05-13 10:26:00,61.3,34.9,28.11,South,180,0.9,0.9,37,0.00,,---,0.00,VWS V14.01,2013-05-13 14:26:00,
2013-05-13 10:31:00,61.0,33.9,28.11,NE,45,0.0,0.0,36,0.00,,---,0.00,VWS V14.01,2013-05-13 14:31:00,
2013-05-13 10:36:00,61.3,34.2,28.11,SSW,202,0.0,0.0,36,0.00,,---,0.00,VWS V14.01,2013-05-13 14:36:00,
2013-05-13 10:41:00,61.2,33.3,28.11,South,180,0.0,3.4,35,0.00,,---,0.00,VWS V14.01,2013-05-13 14:41:00,
2013-05-13 10:46:00,61.7,33.8,28.11,SSW,202,0.0,0.0,35,0.00,,---,0.00,VWS V14.01,2013-05-13 14:46:00,
2013-05-13 10:51:00,61.7,33.8,28.11,SSE,158,0.0,3.8,35,0.00,,---,0.00,VWS V14.01,2013-05-13 14:51:00,
2013-05-13 10:56:00,62.2,35.0,28.11,South,180,0.0,1.1,36,0.00,,---,0.00,VWS V14.01,2013-05-13 14:56:00,
2013-05-13 11:02:00,62.6,34.6,28.11,NE,45,0.9,2.2,35,0.00,,---,0.00,VWS V14.01,2013-05-13 15:02:00,
2013-05-13 11:07:00,63.1,35.8,28.11,WSW,248,1.1,1.3,36,0.00,,---,0.00,VWS V14.01,2013-05-13 15:07:00,
2013-05-13 11:12:00,63.1,35.1,28.11,East,90,1.3,1.3,35,0.00,,---,0.00,VWS V14.01,2013-05-13 15:12:00,
2013-05-13 11:17:00,63.1,34.3,28.11,SSW,202,1.1,2.7,34,0.00,,---,0.00,VWS V14.01,2013-05-13 15:17:00,
2013-05-13 11:22:00,64.0,35.9,28.11,WSW,248,0.0,0.9,35,0.00,,---,0.00,VWS V14.01,2013-05-13 15:22:00,
2013-05-13 11:27:00,64.4,35.5,28.11,NNE,22,2.2,3.1,34,0.00,,---,0.00,VWS V14.01,2013-05-13 15:27:00,
2013-05-13 11:32:00,64.4,35.5,28.11,East,90,0.0,0.0,34,0.00,,---,0.00,VWS V14.01,2013-05-13 15:32:00,
2013-05-13 11:37:00,65.1,36.1,28.11,WNW,292,3.4,3.4,34,0.00,,---,0.00,VWS V14.01,2013-05-13 15:37:00,
2013-05-13 11:42:00,65.1,36.1,28.11,SSE,158,0.0,1.3,34,0.00,,---,0.00,VWS V14.01,2013-05-13 15:42:00,
2013-05-13 11:47:00,65.5,35.6,28.11,South,180,1.1,1.1,33,0.00,,---,0.00,VWS V14.01,2013-05-13 15:47:00,
2013-05-13 11:52:00,65.8,36.7,28.11,WSW,248,1.3,1.3,34,0.00,,---,0.00,VWS V14.01,2013-05-13 15:52:00,
2013-05-13 11:57:00,65.7,35.8,28.11,WSW,248,0.0,1.3,33,0.00,,---,0.00,VWS V14.01,2013-05-13 15:57:00,
2013-05-13 12:02:00,66.6,36.6,28.11,WSW,248,1.6,1.6,33,0.00,,---,0.00,VWS V14.01,2013-05-13 16:02:00,
2013-05-13 12:08:00,67.5,37.4,28.11,WNW,292,0.0,1.1,33,0.00,,---,0.00,VWS V14.01,2013-05-13 16:08:00,
2013-05-13 12:13:00,67.6,37.5,28.11,WNW,292,2.5,2.5,33,0.00,,---,0.00,VWS V14.01,2013-05-13 16:13:00,
2013-05-13 12:18:00,67.1,36.3,28.11,WSW,248,0.0,2.9,32,0.00,,---,0.00,VWS V14.01,2013-05-13 16:18:00,
2013-05-13 12:23:00,66.9,36.1,28.11,SSE,158,0.9,2.2,32,0.00,,---,0.00,VWS V14.01,2013-05-13 16:23:00,
2013-05-13 12:28:00,67.1,36.3,28.11,WSW,248,3.1,4.0,32,0.00,,---,0.00,VWS V14.01,2013-05-13 16:28:00,
2013-05-13 12:33:00,66.9,36.1,28.11,NW,315,1.6,3.4,32,0.00,,---,0.00,VWS V14.01,2013-05-13 16:33:00,
2013-05-13 12:38:00,67.6,37.5,28.11,SSE,158,2.5,4.0,33,0.00,,---,0.00,VWS V14.01,2013-05-13 16:38:00,
2013-05-13 12:43:00,68.2,37.2,28.11,SSW,202,1.6,1.6,32,0.00,,---,0.00,VWS V14.01,2013-05-13 16:43:00,
2013-05-13 12:48:00,68.4,36.6,28.11,SSW,202,1.1,1.3,31,0.00,,---,0.00,VWS V14.01,2013-05-13 16:48:00,
2013-05-13 12:53:00,68.4,34.9,28.11,SW,225,0.9,2.9,29,0.00,,---,0.00,VWS V14.01,2013-05-13 16:53:00,
2013-05-13 12:58:00,68.4,36.6,28.11,South,180,2.0,2.0,31,0.00,,---,0.00,VWS V14.01,2013-05-13 16:58:00,
2013-05-13 13:03:00,68.0,34.6,28.11,West,270,1.6,1.6,29,0.00,,---,0.00,VWS V14.01,2013-05-13 17:03:00,
2013-05-13 13:09:00,68.2,35.6,28.11,SW,225,2.2,2.2,30,0.00,,---,0.00,VWS V14.01,2013-05-13 17:09:00,
2013-05-13 13:14:00,68.5,35.0,28.11,WSW,248,2.0,2.9,29,0.00,,---,0.00,VWS V14.01,2013-05-13 17:14:00,
2013-05-13 13:19:00,68.5,32.3,28.11,NE,45,2.2,2.7,26,0.00,,---,0.00,VWS V14.01,2013-05-13 17:19:00,
2013-05-13 13:24:00,68.7,31.5,28.11,ENE,68,0.9,0.9,25,0.00,,---,0.00,VWS V14.01,2013-05-13 17:24:00,
2013-05-13 13:29:00,69.1,32.8,28.11,SSW,202,2.5,2.5,26,0.00,,---,0.00,VWS V14.01,2013-05-13 17:29:00,
2013-05-13 13:34:00,69.4,32.1,28.11,SSE,158,0.0,0.0,25,0.00,,---,0.00,VWS V14.01,2013-05-13 17:34:00,
2013-05-13 13:39:00,69.1,33.7,28.11,West,270,1.1,1.1,27,0.00,,---,0.00,VWS V14.01,2013-05-13 17:39:00,
2013-05-13 13:44:00,69.3,32.9,28.11,WSW,248,2.5,2.5,26,0.00,,---,0.00,VWS V14.01,2013-05-13 17:44:00,
2013-05-13 13:49:00,69.6,35.1,28.11,South,180,2.0,2.5,28,0.00,,---,0.00,VWS V14.01,2013-05-13 17:49:00,
2013-05-13 13:54:00,69.3,32.9,28.11,ESE,112,0.9,0.9,26,0.00,,---,0.00,VWS V14.01,2013-05-13 17:54:00,
2013-05-13 13:59:00,69.3,32.9,28.11,SW,225,3.6,3.6,26,0.00,,---,0.00,VWS V14.01,2013-05-13 17:59:00,
2013-05-13 14:04:00,69.3,33.9,28.11,ENE,68,3.1,3.1,27,0.00,,---,0.00,VWS V14.01,2013-05-13 18:04:00,
2013-05-13 14:09:00,70.3,34.8,28.08,NNE,22,1.3,1.6,27,0.00,,---,0.00,VWS V14.01,2013-05-13 18:09:00,
2013-05-13 14:14:00,70.3,33.9,28.08,SSW,202,0.0,0.9,26,0.00,,---,0.00,VWS V14.01,2013-05-13 18:14:00,
2013-05-13 14:19:00,70.9,35.3,28.08,SSE,158,2.5,3.1,27,0.00,,---,0.00,VWS V14.01,2013-05-13 18:19:00,
2013-05-13 14:24:00,70.3,32.9,28.08,SSE,158,2.9,2.9,25,0.00,,---,0.00,VWS V14.01,2013-05-13 18:24:00,
2013-05-13 14:30:00,70.5,32.0,28.08,SW,225,1.6,2.9,24,0.00,,---,0.00,VWS V14.01,2013-05-13 18:30:00,
2013-05-13 14:35:00,70.5,33.0,28.08,WSW,248,1.1,1.6,25,0.00,,---,0.00,VWS V14.01,2013-05-13 18:35:00,
2013-05-13 14:40:00,70.9,32.3,28.08,East,90,0.0,1.3,24,0.00,,---,0.00,VWS V14.01,2013-05-13 18:40:00,
2013-05-13 14:45:00,71.2,32.6,28.08,SSW,202,2.0,3.4,24,0.00,,---,0.00,VWS V14.01,2013-05-13 18:45:00,
2013-05-13 14:50:00,71.6,32.9,28.08,South,180,0.0,1.3,24,0.00,,---,0.00,VWS V14.01,2013-05-13 18:50:00,
2013-05-13 14:55:00,70.9,31.3,28.08,NNE,22,2.2,2.2,23,0.00,,---,0.00,VWS V14.01,2013-05-13 18:55:00,
2013-05-13 15:00:00,71.1,32.5,28.08,East,90,0.0,0.0,24,0.00,,---,0.00,VWS V14.01,2013-05-13 19:00:00,
2013-05-13 15:05:00,71.6,31.9,28.08,NW,315,1.1,1.1,23,0.00,,---,0.00,VWS V14.01,2013-05-13 19:05:00,
2013-05-13 15:10:00,71.8,30.9,28.08,SE,135,2.2,2.2,22,0.00,,---,0.00,VWS V14.01,2013-05-13 19:10:00,
2013-05-13 15:15:00,71.8,30.9,28.08,WSW,248,0.9,0.9,22,0.00,,---,0.00,VWS V14.01,2013-05-13 19:15:00,
2013-05-13 15:20:00,72.7,32.8,28.08,South,180,2.5,2.5,23,0.00,,---,0.00,VWS V14.01,2013-05-13 19:20:00,
2013-05-13 15:25:00,72.9,28.2,28.08,East,90,3.1,3.1,19,0.00,,---,0.00,VWS V14.01,2013-05-13 19:25:00,
2013-05-13 15:30:00,72.5,27.9,28.08,WSW,248,2.0,3.4,19,0.00,,---,0.00,VWS V14.01,2013-05-13 19:30:00,
2013-05-13 15:35:00,72.1,23.5,28.08,SSW,202,0.0,1.3,16,0.00,,---,0.00,VWS V14.01,2013-05-13 19:35:00,
2013-05-13 15:41:00,71.8,29.8,28.08,WSW,248,2.9,3.8,21,0.00,,---,0.00,VWS V14.01,2013-05-13 19:41:00,
2013-05-13 15:46:00,72.7,28.1,28.08,NE,45,0.0,2.0,19,0.00,,---,0.00,VWS V14.01,2013-05-13 19:46:00,
2013-05-13 15:51:00,72.5,31.5,28.05,West,270,0.0,1.6,22,0.00,,---,0.00,VWS V14.01,2013-05-13 19:51:00,
2013-05-13 15:56:00,72.5,30.4,28.05,SE,135,0.0,2.9,21,0.00,,---,0.00,VWS V14.01,2013-05-13 19:56:00,
2013-05-13 16:01:00,72.9,28.2,28.05,South,180,1.3,2.2,19,0.00,,---,0.00,VWS V14.01,2013-05-13 20:01:00,
2013-05-13 16:06:00,72.7,31.7,28.05,ENE,68,1.3,1.6,22,0.00,,---,0.00,VWS V14.01,2013-05-13 20:06:00,
2013-05-13 16:11:00,72.7,30.5,28.05,WNW,292,2.2,2.9,21,0.00,,---,0.00,VWS V14.01,2013-05-13 20:11:00,
2013-05-13 16:16:00,71.6,27.2,28.05,SW,225,2.0,2.0,19,0.00,,---,0.00,VWS V14.01,2013-05-13 20:16:00,
2013-05-13 16:21:00,71.8,30.9,28.05,East,90,2.0,2.0,22,0.00,,---,0.00,VWS V14.01,2013-05-13 20:21:00,
2013-05-13 16:26:00,72.3,31.4,28.05,WSW,248,1.3,1.3,22,0.00,,---,0.00,VWS V14.01,2013-05-13 20:26:00,
2013-05-13 16:31:00,72.0,27.5,28.05,SSE,158,2.2,5.6,19,0.00,,---,0.00,VWS V14.01,2013-05-13 20:31:00,
2013-05-13 16:36:00,72.0,23.4,28.05,East,90,2.0,2.5,16,0.00,,---,0.00,VWS V14.01,2013-05-13 20:36:00,
2013-05-13 16:41:00,72.1,14.8,28.05,SSW,202,1.1,2.2,11,0.00,,---,0.00,VWS V14.01,2013-05-13 20:41:00,
2013-05-13 16:46:00,71.6,-7.5,28.05,SE,135,2.0,2.5,4,0.00,,---,0.00,VWS V14.01,2013-05-13 20:46:00,
2013-05-13 16:51:00,71.6,1.0,28.05,NW,315,2.5,2.5,6,0.00,,---,0.00,VWS V14.01,2013-05-13 20:51:00,
2013-05-13 16:56:00,71.6,9.8,28.05,ESE,112,2.0,2.0,9,0.00,,---,0.00,VWS V14.01,2013-05-13 20:56:00,
2013-05-13 17:01:00,71.4,-7.6,28.05,South,180,1.3,2.0,4,0.00,,---,0.00,VWS V14.01,2013-05-13 21:01:00,
2013-05-13 17:06:00,70.5,3.5,28.05,NNW,338,2.5,2.5,7,0.00,,---,0.00,VWS V14.01,2013-05-13 21:06:00,
2013-05-13 17:12:00,70.0,3.1,28.05,SSW,202,1.6,3.1,7,0.00,,---,0.00,VWS V14.01,2013-05-13 21:12:00,
2013-05-13 17:17:00,69.4,19.8,28.05,SSE,158,1.3,1.3,15,0.00,,---,0.00,VWS V14.01,2013-05-13 21:17:00,
2013-05-13 17:22:00,68.7,22.2,28.05,SSW,202,0.9,0.9,17,0.00,,---,0.00,VWS V14.01,2013-05-13 21:22:00,
2013-05-13 17:27:00,67.6,27.5,28.05,WSW,248,1.1,2.9,22,0.00,,---,0.00,VWS V14.01,2013-05-13 21:27:00,
2013-05-13 17:32:00,66.7,27.8,28.05,West,270,0.9,0.9,23,0.00,,---,0.00,VWS V14.01,2013-05-13 21:32:00,
2013-05-13 17:37:00,66.0,28.2,28.05,WSW,248,0.0,1.3,24,0.00,,---,0.00,VWS V14.01,2013-05-13 21:37:00,
2013-05-13 17:42:00,65.7,28.9,28.05,SW,225,1.1,2.2,25,0.00,,---,0.00,VWS V14.01,2013-05-13 21:42:00,
2013-05-13 17:47:00,65.1,28.5,28.05,South,180,0.9,0.9,25,0.00,,---,0.00,VWS V14.01,2013-05-13 21:47:00,
2013-05-13 17:52:00,64.4,27.8,28.05,South,180,1.3,1.3,25,0.00,,---,0.00,VWS V14.01,2013-05-13 21:52:00,
2013-05-13 17:57:00,64.2,28.6,28.05,South,180,1.6,1.6,26,0.00,,---,0.00,VWS V14.01,2013-05-13 21:57:00,
2013-05-13 18:02:00,63.9,28.3,28.05,South,180,1.6,1.6,26,0.00,,---,0.00,VWS V14.01,2013-05-13 22:02:00,
2013-05-13 18:07:00,63.5,28.0,28.05,WSW,248,1.3,1.3,26,0.00,,---,0.00,VWS V14.01,2013-05-13 22:07:00,
2013-05-13 18:12:00,63.3,28.8,28.05,NE,45,1.1,1.1,27,0.00,,---,0.00,VWS V14.01,2013-05-13 22:12:00,
2013-05-13 18:17:00,63.3,28.8,28.05,ENE,68,1.3,1.3,27,0.00,,---,0.00,VWS V14.01,2013-05-13 22:17:00,
2013-05-13 18:22:00,63.1,28.6,28.05,SW,225,0.0,1.6,27,0.00,,---,0.00,VWS V14.01,2013-05-13 22:22:00,
2013-05-13 18:27:00,63.0,29.4,28.05,NNW,338,1.1,1.6,28,0.00,,---,0.00,VWS V14.01,2013-05-13 22:27:00,
2013-05-13 18:33:00,62.8,28.3,28.05,NW,315,0.9,2.7,27,0.00,,---,0.00,VWS V14.01,2013-05-13 22:33:00,
2013-05-13 18:38:00,62.8,29.2,28.05,ENE,68,1.3,2.0,28,0.00,,---,0.00,VWS V14.01,2013-05-13 22:38:00,
2013-05-13 18:43:00,62.4,29.8,28.05,WSW,248,0.0,0.0,29,0.00,,---,0.00,VWS V14.01,2013-05-13 22:43:00,
2013-05-13 18:48:00,62.2,29.6,28.05,SSE,158,0.0,0.0,29,0.00,,---,0.00,VWS V14.01,2013-05-13 22:48:00,
2013-05-13 18:53:00,62.2,29.6,28.05,SW,225,0.0,1.1,29,0.00,,---,0.00,VWS V14.01,2013-05-13 22:53:00,
2013-05-13 18:58:00,62.1,30.3,28.05,WNW,292,0.0,1.6,30,0.00,,---,0.00,VWS V14.01,2013-05-13 22:58:00,
2013-05-13 19:03:00,61.9,29.3,28.05,WSW,248,0.0,0.0,29,0.00,,---,0.00,VWS V14.01,2013-05-13 23:03:00,
2013-05-13 19:08:00,61.7,30.0,28.05,SSW,202,2.5,2.5,30,0.00,,---,0.00,VWS V14.01,2013-05-13 23:08:00,
2013-05-13 19:13:00,61.5,29.8,28.05,SSW,202,0.0,0.0,30,0.00,,---,0.00,VWS V14.01,2013-05-13 23:13:00,
2013-05-13 19:18:00,61.5,30.6,28.05,WSW,248,0.0,1.3,31,0.00,,---,0.00,VWS V14.01,2013-05-13 23:18:00,
2013-05-13 19:23:00,61.3,30.5,28.02,ESE,112,0.9,1.3,31,0.00,,---,0.00,VWS V14.01,2013-05-13 23:23:00,
2013-05-13 19:28:00,61.2,30.3,28.02,ENE,68,0.0,1.6,31,0.00,,---,0.00,VWS V14.01,2013-05-13 23:28:00,
2013-05-13 19:33:00,61.0,29.4,28.02,WSW,248,1.3,1.3,30,0.00,,---,0.00,VWS V14.01,2013-05-13 23:33:00,
2013-05-13 19:38:00,61.0,29.4,28.05,WNW,292,0.0,0.0,30,0.00,,---,0.00,VWS V14.01,2013-05-13 23:38:00,
2013-05-13 19:44:00,61.0,29.4,28.05,WSW,248,0.0,0.0,30,0.00,,---,0.00,VWS V14.01,2013-05-13 23:44:00,
2013-05-13 19:49:00,60.3,30.3,28.05,WNW,292,0.0,0.0,32,0.00,,---,0.00,VWS V14.01,2013-05-13 23:49:00,
2013-05-13 19:54:00,60.1,30.9,28.05,SSW,202,0.0,0.0,33,0.00,,---,0.00,VWS V14.01,2013-05-13 23:54:00,
2013-05-13 19:59:00,59.9,30.8,28.05,WSW,248,0.9,0.9,33,0.00,,---,0.00,VWS V14.01,2013-05-13 23:59:00,
2013-05-13 20:04:00,59.7,30.6,28.05,WSW,248,0.0,0.0,33,0.00,,---,0.00,VWS V14.01,2013-05-14 00:04:00,
2013-05-13 20:09:00,59.4,31.0,28.05,SW,225,0.0,0.0,34,0.00,,---,0.00,VWS V14.01,2013-05-14 00:09:00,
2013-05-13 20:14:00,59.2,30.9,28.05,WSW,248,0.0,0.0,34,0.00,,---,0.00,VWS V14.01,2013-05-14 00:14:00,
2013-05-13 20:19:00,58.8,30.5,28.05,WSW,248,0.0,0.0,34,0.00,,---,0.00,VWS V14.01,2013-05-14 00:19:00,
2013-05-13 20:24:00,58.5,30.9,28.05,West,270,0.0,0.0,35,0.00,,---,0.00,VWS V14.01,2013-05-14 00:24:00,
2013-05-13 20:29:00,58.1,30.6,28.05,West,270,0.0,0.0,35,0.00,,---,0.00,VWS V14.01,2013-05-14 00:29:00,
2013-05-13 20:34:00,57.6,30.1,28.05,WSW,248,0.0,0.0,35,0.00,,---,0.00,VWS V14.01,2013-05-14 00:34:00,
2013-05-13 20:39:00,57.2,29.8,28.08,WSW,248,0.0,0.0,35,0.00,,---,0.00,VWS V14.01,2013-05-14 00:39:00,
2013-05-13 20:45:00,56.8,30.2,28.08,WSW,248,0.0,0.0,36,0.00,,---,0.00,VWS V14.01,2013-05-14 00:45:00,
2013-05-13 20:50:00,56.5,29.9,28.08,WSW,248,0.0,0.0,36,0.00,,---,0.00,VWS V14.01,2013-05-14 00:50:00,
2013-05-13 20:55:00,55.9,29.4,28.05,WSW,248,0.0,0.0,36,0.00,,---,0.00,VWS V14.01,2013-05-14 00:55:00,
2013-05-13 21:00:00,55.4,28.9,28.05,WSW,248,0.0,0.0,36,0.00,,---,0.00,VWS V14.01,2013-05-14 01:00:00,
2013-05-13 21:05:00,55.0,29.3,28.05,WSW,248,0.0,0.0,37,0.00,,---,0.00,VWS V14.01,2013-05-14 01:05:00,
2013-05-13 21:10:00,54.9,29.1,28.05,WSW,248,0.0,0.0,37,0.00,,---,0.00,VWS V14.01,2013-05-14 01:10:00,
2013-05-13 21:15:00,54.9,29.1,28.05,WSW,248,0.0,0.0,37,0.00,,---,0.00,VWS V14.01,2013-05-14 01:15:00,
2013-05-13 21:20:00,54.7,29.6,28.05,WSW,248,0.0,0.0,38,0.00,,---,0.00,VWS V14.01,2013-05-14 01:20:00,
2013-05-13 21:25:00,54.5,29.4,28.08,WSW,248,0.0,0.0,38,0.00,,---,0.00,VWS V14.01,2013-05-14 01:25:00,
2013-05-13 21:30:00,54.5,29.4,28.08,West,270,0.0,0.0,38,0.00,,---,0.00,VWS V14.01,2013-05-14 01:30:00,
2013-05-13 21:35:00,54.1,29.8,28.08,West,270,0.0,0.0,39,0.00,,---,0.00,VWS V14.01,2013-05-14 01:35:00,
2013-05-13 21:40:00,54.0,29.6,28.05,SW,225,0.0,0.0,39,0.00,,---,0.00,VWS V14.01,2013-05-14 01:40:00,
2013-05-13 21:45:00,53.8,29.4,28.05,SW,225,0.0,0.0,39,0.00,,---,0.00,VWS V14.01,2013-05-14 01:45:00,
2013-05-13 21:50:00,53.6,29.9,28.08,SW,225,0.0,0.0,40,0.00,,---,0.00,VWS V14.01,2013-05-14 01:50:00,
2013-05-13 21:56:00,53.2,30.2,28.08,SW,225,0.0,0.0,41,0.00,,---,0.00,VWS V14.01,2013-05-14 01:56:00,
2013-05-13 22:01:00,53.1,30.0,28.08,SW,225,0.0,0.0,41,0.00,,---,0.00,VWS V14.01,2013-05-14 02:01:00,
2013-05-13 22:06:00,52.9,29.8,28.08,SW,225,0.0,0.0,41,0.00,,---,0.00,VWS V14.01,2013-05-14 02:06:00,
2013-05-13 22:11:00,52.5,29.5,28.08,SW,225,0.0,0.0,41,0.00,,---,0.00,VWS V14.01,2013-05-14 02:11:00,
2013-05-13 22:16:00,52.3,29.4,28.08,SW,225,0.0,0.0,41,0.00,,---,0.00,VWS V14.01,2013-05-14 02:16:00,
2013-05-13 22:21:00,52.3,29.4,28.08,SW,225,0.0,0.0,41,0.00,,---,0.00,VWS V14.01,2013-05-14 02:21:00,
2013-05-13 22:26:00,52.3,30.0,28.08,SW,225,0.0,0.0,42,0.00,,---,0.00,VWS V14.01,2013-05-14 02:26:00,
2013-05-13 22:31:00,52.2,29.8,28.08,NNW,338,0.0,0.0,42,0.00,,---,0.00,VWS V14.01,2013-05-14 02:31:00,
2013-05-13 22:36:00,52.3,30.0,28.08,NNW,338,0.0,0.0,42,0.00,,---,0.00,VWS V14.01,2013-05-14 02:36:00,
2013-05-13 22:41:00,52.3,30.0,28.08,NNW,338,0.0,0.0,42,0.00,,---,0.00,VWS V14.01,2013-05-14 02:41:00,
2013-05-13 22:46:00,52.3,30.5,28.08,NNW,338,0.0,0.0,43,0.00,,---,0.00,VWS V14.01,2013-05-14 02:46:00,
2013-05-13 22:51:00,52.2,29.8,28.08,West,270,0.0,0.0,42,0.00,,---,0.00,VWS V14.01,2013-05-14 02:51:00,
2013-05-13 22:56:00,52.2,29.8,28.08,West,270,0.0,0.0,42,0.00,,---,0.00,VWS V14.01,2013-05-14 02:56:00,
2013-05-13 23:01:00,52.0,30.2,28.08,West,270,0.0,0.0,43,0.00,,---,0.00,VWS V14.01,2013-05-14 03:01:00,
2013-05-13 23:06:00,52.0,30.2,28.08,West,270,0.0,0.0,43,0.00,,---,0.00,VWS V14.01,2013-05-14 03:06:00,
2013-05-13 23:11:00,52.0,30.2,28.08,West,270,0.0,0.0,43,0.00,,---,0.00,VWS V14.01,2013-05-14 03:11:00,
2013-05-13 23:16:00,52.0,30.2,28.08,West,270,0.0,0.0,43,0.00,,---,0.00,VWS V14.01,2013-05-14 03:16:00,
2013-05-13 23:22:00,52.2,30.4,28.08,West,270,0.0,0.0,43,0.00,,---,0.00,VWS V14.01,2013-05-14 03:22:00,
2013-05-13 23:27:00,52.0,30.2,28.08,WNW,292,0.0,0.0,43,0.00,,---,0.00,VWS V14.01,2013-05-14 03:27:00,
2013-05-13 23:32:00,52.2,30.4,28.08,NW,315,0.0,0.0,43,0.00,,---,0.00,VWS V14.01,2013-05-14 03:32:00,
2013-05-13 23:37:00,52.3,30.5,28.08,NW,315,0.0,0.0,43,0.00,,---,0.00,VWS V14.01,2013-05-14 03:37:00,
2013-05-13 23:42:00,52.3,30.5,28.08,NW,315,0.0,0.0,43,0.00,,---,0.00,VWS V14.01,2013-05-14 03:42:00,
2013-05-13 23:47:00,52.3,30.5,28.08,NW,315,0.0,0.0,43,0.00,,---,0.00,VWS V14.01,2013-05-14 03:47:00,
2013-05-13 23:52:00,52.3,30.5,28.08,NW,315,0.0,0.0,43,0.00,,---,0.00,VWS V14.01,2013-05-14 03:52:00,
2013-05-13 23:57:00,52.3,30.5,28.08,NW,315,0.0,0.0,43,0.00,,---,0.00,VWS V14.01,2013-05-14 03:57:00,